createdAt,value
2023-04-15T00:02:18.944Z,100949.78
2023-04-15T00:04:46.973Z,100951.69
2023-04-15T00:07:14.647Z,100954.38
2023-04-15T00:09:42.500Z,100952.16
2023-04-15T00:12:09.280Z,100959.56
2023-04-15T00:14:36.960Z,100958.00
2023-04-15T00:17:04.767Z,100965.75
2023-04-15T00:19:32.451Z,100960.34
2023-04-15T00:22:00.806Z,100961.16
2023-04-15T00:24:27.978Z,100953.09
2023-04-15T00:27:00.372Z,100958.59
2023-04-15T00:29:27.041Z,100954.47
2023-04-15T00:31:53.494Z,100961.31
2023-04-15T00:34:20.380Z,100958.47
2023-04-15T00:36:47.120Z,100954.19
2023-04-15T00:39:13.595Z,100960.34
2023-04-15T00:41:40.308Z,100953.41
2023-04-15T00:44:07.473Z,100961.34
2023-04-15T00:46:37.706Z,100960.75
2023-04-15T00:49:05.691Z,100963.63
2023-04-15T00:51:36.194Z,100959.09
2023-04-15T00:54:04.423Z,100962.44
2023-04-15T00:56:31.525Z,100964.53
2023-04-15T00:58:59.248Z,100965.97
2023-04-15T01:01:26.895Z,100964.22
2023-04-15T01:03:53.995Z,100965.84
2023-04-15T01:06:20.769Z,100970.66
2023-04-15T01:08:47.267Z,100968.13
2023-04-15T01:11:14.478Z,100965.28
2023-04-15T01:13:41.699Z,100965.94
2023-04-15T01:16:14.672Z,100968.50
2023-04-15T01:18:41.560Z,100969.91
2023-04-15T01:21:08.301Z,100968.34
2023-04-15T01:23:38.700Z,100964.69
2023-04-15T01:26:07.882Z,100962.00
2023-04-15T01:28:34.510Z,100965.38
2023-04-15T01:31:12.657Z,100963.00
2023-04-15T01:33:40.137Z,100962.19
2023-04-15T01:36:08.890Z,100962.03
2023-04-15T01:38:38.560Z,100963.50
2023-04-15T01:41:07.704Z,100963.66
2023-04-15T01:43:43.371Z,100962.25
2023-04-15T01:46:10.176Z,100965.09
2023-04-15T01:48:36.649Z,100969.69
2023-04-15T01:51:03.299Z,100962.72
2023-04-15T01:53:30.059Z,100964.47
2023-04-15T01:55:57.194Z,100967.03
2023-04-15T01:58:23.650Z,100968.13
2023-04-15T02:00:50.296Z,100964.50
2023-04-15T02:03:17.126Z,100966.72
2023-04-15T02:05:43.777Z,100973.50
2023-04-15T02:08:10.212Z,100968.78
2023-04-15T02:10:36.947Z,100973.53
2023-04-15T02:13:03.456Z,100971.97
2023-04-15T02:15:30.538Z,100971.97
2023-04-15T02:17:57.261Z,100968.81
2023-04-15T02:20:23.813Z,100980.19
2023-04-15T02:22:50.263Z,100976.53
2023-04-15T02:25:17.227Z,100981.44
2023-04-15T02:27:46.774Z,100986.81
2023-04-15T02:30:13.600Z,100988.72
2023-04-15T02:32:40.846Z,100989.50
2023-04-15T02:35:09.066Z,100993.31
2023-04-15T02:37:43.621Z,100990.13
2023-04-15T02:40:13.632Z,100999.31
2023-04-15T02:42:41.295Z,100999.94
2023-04-15T02:45:08.396Z,101000.53
2023-04-15T02:47:36.241Z,101008.44
2023-04-15T02:50:04.147Z,101006.38
2023-04-15T02:52:31.265Z,101008.59
2023-04-15T02:55:00.637Z,101005.75
2023-04-15T02:57:29.349Z,101019.81
2023-04-15T02:59:55.777Z,101020.75
2023-04-15T03:02:22.479Z,101021.84
2023-04-15T03:04:49.332Z,101016.63
2023-04-15T03:07:15.828Z,101019.94
2023-04-15T03:09:42.669Z,101014.41
2023-04-15T03:12:09.069Z,101014.72
2023-04-15T03:14:35.756Z,101026.09
2023-04-15T03:17:02.108Z,101019.75
2023-04-15T03:19:28.755Z,101024.66
2023-04-15T03:22:05.720Z,101029.88
2023-04-15T03:24:32.353Z,101032.69
2023-04-15T03:27:08.202Z,101033.31
2023-04-15T03:29:34.720Z,101037.88
2023-04-15T03:32:01.277Z,101031.88
2023-04-15T03:34:27.930Z,101031.56
2023-04-15T03:36:54.510Z,101033.91
2023-04-15T03:39:21.559Z,101032.03
2023-04-15T03:41:48.251Z,101045.16
2023-04-15T03:44:14.652Z,101041.50
2023-04-15T03:46:41.450Z,101040.72
2023-04-15T03:49:08.444Z,101047.00
2023-04-15T03:51:35.308Z,101048.25
2023-04-15T03:54:07.752Z,101057.72
2023-04-15T03:56:37.633Z,101054.53
2023-04-15T03:59:04.103Z,101065.59
2023-04-15T04:01:30.678Z,101062.41
2023-04-15T04:03:57.223Z,101060.03
2023-04-15T04:06:23.912Z,101065.53
2023-04-15T04:08:50.624Z,101071.53
2023-04-15T04:11:17.173Z,101075.31
2023-04-15T04:13:43.598Z,101083.97
2023-04-15T04:16:10.521Z,101082.69
2023-04-15T04:18:37.022Z,101079.53
2023-04-15T04:21:03.637Z,101082.84
2023-04-15T04:23:30.677Z,101091.50
2023-04-15T04:25:57.094Z,101087.53
2023-04-15T04:28:23.661Z,101099.50
2023-04-15T04:30:50.225Z,101091.56
2023-04-15T04:33:17.807Z,101097.72
2023-04-15T04:35:44.271Z,101107.66
2023-04-15T04:38:11.022Z,101105.56
2023-04-15T04:40:40.582Z,101111.72
2023-04-15T04:43:07.146Z,101110.63
2023-04-15T04:45:33.675Z,101116.78
2023-04-15T04:48:00.606Z,101120.25
2023-04-15T04:50:32.577Z,101125.13
2023-04-15T04:53:01.609Z,101130.00
2023-04-15T04:55:29.028Z,101132.22
2023-04-15T04:57:55.987Z,101145.81
2023-04-15T05:00:22.910Z,101147.00
2023-04-15T05:02:52.682Z,101143.34
2023-04-15T05:05:25.116Z,101146.03
2023-04-15T05:07:51.723Z,101156.94
2023-04-15T05:10:18.385Z,101162.78
2023-04-15T05:12:45.002Z,101165.34
2023-04-15T05:15:11.779Z,101166.03
2023-04-15T05:17:38.617Z,101171.59
2023-04-15T05:20:05.664Z,101177.81
2023-04-15T05:22:32.195Z,101180.72
2023-04-15T05:24:58.773Z,101174.56
2023-04-15T05:30:13.548Z,101184.59
2023-04-15T05:32:43.210Z,101190.50
2023-04-15T05:35:09.746Z,101190.16
2023-04-15T05:37:36.285Z,101189.84
2023-04-15T05:40:02.816Z,101198.53
2023-04-15T05:42:29.265Z,101202.75
2023-04-15T05:44:55.816Z,101197.19
2023-04-15T05:47:22.279Z,101211.47
2023-04-15T05:49:48.709Z,101214.44
2023-04-15T05:52:19.361Z,101216.56
2023-04-15T05:54:45.859Z,101224.94
2023-04-15T05:57:12.273Z,101217.75
2023-04-15T05:59:38.998Z,101228.47
2023-04-15T06:02:06.559Z,101234.22
2023-04-15T06:04:33.229Z,101226.75
2023-04-15T06:06:59.876Z,101235.34
2023-04-15T06:09:26.641Z,101233.59
2023-04-15T06:11:53.419Z,101240.28
2023-04-15T06:14:22.096Z,101245.78
2023-04-15T06:16:48.671Z,101256.91
2023-04-15T06:19:15.933Z,101258.56
2023-04-15T06:21:42.471Z,101259.16
2023-04-15T06:24:08.973Z,101260.78
2023-04-15T06:26:35.661Z,101262.28
2023-04-15T06:29:05.221Z,101264.59
2023-04-15T06:31:31.966Z,101267.72
2023-04-15T06:33:58.407Z,101275.66
2023-04-15T06:36:24.980Z,101279.44
2023-04-15T06:38:51.668Z,101280.03
2023-04-15T06:41:18.341Z,101285.47
2023-04-15T06:43:44.912Z,101283.03
2023-04-15T06:46:11.880Z,101294.34
2023-04-15T06:48:38.371Z,101289.63
2023-04-15T06:51:04.927Z,101306.13
2023-04-15T06:53:31.320Z,101307.94
2023-04-15T06:58:40.545Z,101312.38
2023-04-15T07:01:07.036Z,101326.22
2023-04-15T07:03:33.642Z,101317.91
2023-04-15T07:06:06.613Z,101333.19
2023-04-15T07:08:33.962Z,101329.03
2023-04-15T07:11:01.439Z,101333.66
2023-04-15T07:13:30.948Z,101340.34
2023-04-15T07:15:57.568Z,101344.56
2023-04-15T07:18:31.751Z,101345.16
2023-04-15T07:21:04.702Z,101352.75
2023-04-15T07:23:31.523Z,101359.31
2023-04-15T07:26:04.651Z,101362.38
2023-04-15T07:28:31.742Z,101360.91
2023-04-15T07:30:58.245Z,101359.06
2023-04-15T07:33:24.760Z,101358.91
2023-04-15T07:35:51.264Z,101368.72
2023-04-15T07:38:17.963Z,101370.06
2023-04-15T07:43:27.116Z,101368.78
2023-04-15T07:45:53.630Z,101371.25
2023-04-15T07:48:21.825Z,101374.72
2023-04-15T07:50:48.539Z,101373.66
2023-04-15T07:53:15.524Z,101378.03
2023-04-15T07:55:42.076Z,101375.63
2023-04-15T07:58:08.492Z,101381.94
2023-04-15T08:00:35.152Z,101385.75
2023-04-15T08:03:02.330Z,101387.88
2023-04-15T08:05:34.796Z,101398.53
2023-04-15T08:08:01.679Z,101389.78
2023-04-15T08:10:29.966Z,101402.72
2023-04-15T08:13:08.886Z,101401.16
2023-04-15T08:15:35.870Z,101401.00
2023-04-15T08:18:02.405Z,101406.53
2023-04-15T08:20:28.932Z,101412.56
2023-04-15T08:22:55.761Z,101420.66
2023-04-15T08:25:28.837Z,101413.16
2023-04-15T08:27:57.910Z,101418.19
2023-04-15T08:30:24.694Z,101419.88
2023-04-15T08:32:51.642Z,101421.53
2023-04-15T08:35:18.550Z,101423.22
2023-04-15T08:37:45.321Z,101427.09
2023-04-15T08:40:12.673Z,101430.06
2023-04-15T08:42:45.015Z,101441.97
2023-04-15T08:45:14.845Z,101432.31
2023-04-15T08:50:26.547Z,101450.38
2023-04-15T08:52:56.105Z,101453.63
2023-04-15T08:55:23.990Z,101455.66
2023-04-15T08:57:54.658Z,101463.41
2023-04-15T09:00:21.523Z,101476.84
2023-04-15T09:02:48.195Z,101471.66
2023-04-15T09:05:14.741Z,101473.66
2023-04-15T09:07:41.408Z,101476.41
2023-04-15T09:10:08.497Z,101483.84
2023-04-15T09:12:37.029Z,101484.66
2023-04-15T09:15:04.170Z,101485.38
2023-04-15T09:17:33.432Z,101495.22
2023-04-15T09:20:11.005Z,101496.41
2023-04-15T09:22:38.063Z,101499.56
2023-04-15T09:25:04.958Z,101501.50
2023-04-15T09:27:48.512Z,101507.38
2023-04-15T09:30:15.317Z,101507.75
2023-04-15T09:32:54.957Z,101519.50
2023-04-15T09:38:06.984Z,101521.41
2023-04-15T09:40:53.205Z,101518.25
2023-04-15T09:43:20.476Z,101509.50
2023-04-15T09:45:52.014Z,101525.22
2023-04-15T09:48:28.094Z,101518.66
2023-04-15T09:50:58.478Z,101531.97
2023-04-15T09:53:26.161Z,101524.13
2023-04-15T09:55:55.199Z,101536.72
2023-04-15T09:58:35.457Z,101531.13
2023-04-15T10:01:05.108Z,101532.53
2023-04-15T10:03:34.324Z,101529.81
2023-04-15T10:06:02.083Z,101530.69
2023-04-15T10:08:30.812Z,101540.56
2023-04-15T10:11:04.530Z,101538.31
2023-04-15T10:13:37.034Z,101553.63
2023-04-15T10:16:14.936Z,101551.63
2023-04-15T10:18:52.808Z,101547.50
2023-04-15T10:21:19.761Z,101541.03
2023-04-15T10:23:46.942Z,101552.28
2023-04-15T10:26:14.937Z,101546.38
2023-04-15T10:28:51.539Z,101547.19
2023-04-15T10:31:18.648Z,101543.91
2023-04-15T10:33:47.482Z,101546.84
2023-04-15T10:36:15.500Z,101550.38
2023-04-15T10:38:48.403Z,101555.56
2023-04-15T10:41:23.744Z,101557.56
2023-04-15T10:43:59.116Z,101554.38
2023-04-15T10:46:58.425Z,101565.34
2023-04-15T10:49:26.268Z,101562.16
2023-04-15T10:51:57.204Z,101576.28
2023-04-15T10:54:26.875Z,101564.97
2023-04-15T10:57:06.117Z,101577.53
2023-04-15T10:59:58.961Z,101575.88
2023-04-15T11:02:56.522Z,101590.66
2023-04-15T11:05:43.110Z,101585.56
2023-04-15T11:08:10.783Z,101586.03
2023-04-15T11:10:37.256Z,101586.88
2023-04-15T11:13:10.985Z,101582.53
2023-04-15T11:15:42.664Z,101582.63
2023-04-15T11:18:12.326Z,101585.00
2023-04-15T11:20:40.272Z,101584.16
2023-04-15T11:23:15.038Z,101590.69
2023-04-15T11:25:43.523Z,101590.41
2023-04-15T11:28:11.417Z,101581.47
2023-04-15T11:30:39.141Z,101595.59
2023-04-15T11:33:18.104Z,101591.28
2023-04-15T11:35:44.847Z,101594.81
2023-04-15T11:38:15.770Z,101598.72
2023-04-15T11:40:46.157Z,101596.78
2023-04-15T11:43:16.633Z,101588.84
2023-04-15T11:45:58.508Z,101593.28
2023-04-15T11:48:27.506Z,101597.72
2023-04-15T11:50:56.268Z,101600.63
2023-04-15T11:53:24.145Z,101602.25
2023-04-15T11:55:53.384Z,101607.31
2023-04-15T11:58:22.461Z,101605.34
2023-04-15T12:00:54.796Z,101612.31
2023-04-15T12:03:35.841Z,101618.50
2023-04-15T12:06:33.862Z,101617.72
2023-04-15T12:09:06.408Z,101619.34
2023-04-15T12:11:38.361Z,101633.56
2023-04-15T12:14:10.865Z,101637.88
2023-04-15T12:16:48.271Z,101642.59
2023-04-15T12:19:26.004Z,101651.66
2023-04-15T12:21:59.951Z,101639.88
2023-04-15T12:24:29.410Z,101645.38
2023-04-15T12:26:58.016Z,101643.00
2023-04-15T12:29:31.241Z,101646.09
2023-04-15T12:32:04.000Z,101648.09
2023-04-15T12:34:36.071Z,101647.31
2023-04-15T12:37:21.150Z,101660.66
2023-04-15T12:39:54.600Z,101654.34
2023-04-15T12:45:03.083Z,101665.69
2023-04-15T12:47:29.704Z,101665.34
2023-04-15T12:49:56.136Z,101675.06
2023-04-15T12:52:23.080Z,101680.47
2023-04-15T12:54:49.559Z,101685.75
2023-04-15T12:57:16.266Z,101681.66
2023-04-15T12:59:45.725Z,101692.00
2023-04-15T13:02:12.315Z,101698.72
2023-04-15T13:04:56.747Z,101695.72
2023-04-15T13:07:23.381Z,101702.88
2023-04-15T13:09:49.920Z,101704.03
2023-04-15T13:12:16.706Z,101703.94
2023-04-15T13:14:43.330Z,101704.88
2023-04-15T13:17:11.614Z,101720.44
2023-04-15T13:19:39.025Z,101712.72
2023-04-15T13:22:05.882Z,101721.59
2023-04-15T13:24:32.490Z,101723.81
2023-04-15T13:26:59.523Z,101719.09
2023-04-15T13:29:25.998Z,101716.63
2023-04-15T13:31:52.564Z,101727.78
2023-04-15T13:34:19.062Z,101731.63
2023-04-15T13:36:46.086Z,101743.16
2023-04-15T13:39:12.713Z,101742.66
2023-04-15T13:41:40.385Z,101751.63
2023-04-15T13:44:07.315Z,101749.69
2023-04-15T13:46:34.013Z,101744.88
2023-04-15T13:49:00.769Z,101759.56
2023-04-15T13:51:38.612Z,101759.16
2023-04-15T13:54:14.301Z,101758.94
2023-04-15T13:56:50.731Z,101765.44
2023-04-15T13:59:17.249Z,101769.94
2023-04-15T14:01:46.817Z,101775.28
2023-04-15T14:04:19.559Z,101766.56
2023-04-15T14:06:46.334Z,101770.44
2023-04-15T14:09:15.326Z,101766.31
2023-04-15T14:11:42.362Z,101767.19
2023-04-15T14:14:08.870Z,101783.38
2023-04-15T14:16:36.267Z,101787.84
2023-04-15T14:19:03.124Z,101792.50
2023-04-15T14:21:32.116Z,101788.47
2023-04-15T14:23:58.853Z,101789.31
2023-04-15T14:26:25.475Z,101809.72
2023-04-15T14:28:52.240Z,101808.47
2023-04-15T14:31:20.222Z,101818.50
2023-04-15T14:33:46.769Z,101823.06
2023-04-15T14:36:13.349Z,101822.63
2023-04-15T14:38:40.311Z,101823.03
2023-04-15T14:41:08.263Z,101831.81
2023-04-15T14:43:35.384Z,101828.22
2023-04-15T14:46:05.181Z,101834.19
2023-04-15T14:48:31.885Z,101831.13
2023-04-15T14:50:59.423Z,101837.59
2023-04-15T14:53:26.280Z,101842.78
2023-04-15T14:55:52.787Z,101831.38
2023-04-15T14:58:19.499Z,101852.75
2023-04-15T15:00:48.585Z,101862.53
2023-04-15T15:03:15.765Z,101860.97
2023-04-15T15:05:58.010Z,101865.63
2023-04-15T15:08:37.275Z,101866.44
2023-04-15T15:11:03.682Z,101869.13
2023-04-15T15:13:30.177Z,101870.84
2023-04-15T15:15:57.359Z,101867.19
2023-04-15T15:18:25.781Z,101871.84
2023-04-15T15:20:52.201Z,101871.38
2023-04-15T15:23:18.852Z,101874.38
2023-04-15T15:25:46.339Z,101886.31
2023-04-15T15:28:16.095Z,101889.59
2023-04-15T15:30:48.715Z,101888.66
2023-04-15T15:33:21.184Z,101887.31
2023-04-15T15:35:47.715Z,101898.31
2023-04-15T15:38:14.218Z,101887.91
2023-04-15T15:40:40.836Z,101890.84
2023-04-15T15:43:07.419Z,101892.19
2023-04-15T15:45:34.863Z,101902.94
2023-04-15T15:48:02.108Z,101904.41
2023-04-15T15:50:29.090Z,101905.94
2023-04-15T15:52:55.804Z,101910.69
2023-04-15T15:55:23.449Z,101913.25
2023-04-15T15:57:50.013Z,101911.78
2023-04-15T16:00:16.615Z,101914.59
2023-04-15T16:05:13.410Z,101922.41
2023-04-15T16:07:39.867Z,101923.59
2023-04-15T16:10:06.967Z,101928.03
2023-04-15T16:12:35.004Z,101945.53
2023-04-15T16:15:04.131Z,101934.13
2023-04-15T16:17:31.137Z,101940.06
2023-04-15T16:20:00.729Z,101948.84
2023-04-15T16:22:27.725Z,101948.91
2023-04-15T16:24:54.320Z,101947.88
2023-04-15T16:27:21.122Z,101952.34
2023-04-15T16:29:47.930Z,101953.22
2023-04-15T16:32:14.588Z,101960.34
2023-04-15T16:34:41.389Z,101960.53
2023-04-15T16:37:08.480Z,101966.00
2023-04-15T16:39:35.299Z,101970.38
2023-04-15T16:42:03.299Z,101965.31
2023-04-15T16:44:30.339Z,101974.28
2023-04-15T16:46:57.017Z,101975.28
2023-04-15T16:49:23.475Z,101976.25
2023-04-15T16:51:56.405Z,101979.75
2023-04-15T16:54:22.997Z,101978.56
2023-04-15T16:56:49.476Z,101992.09
2023-04-15T16:59:16.360Z,101992.25
2023-04-15T17:01:43.058Z,101987.00
2023-04-15T17:04:09.854Z,101995.31
2023-04-15T17:06:36.418Z,101996.91
2023-04-15T17:09:03.544Z,101995.19
2023-04-15T17:11:31.238Z,101993.09
2023-04-15T17:13:57.743Z,101997.88
2023-04-15T17:16:25.329Z,101998.03
2023-04-15T17:18:51.933Z,101997.06
2023-04-15T17:21:18.479Z,101984.00
2023-04-15T17:23:45.002Z,102006.63
2023-04-15T17:26:11.608Z,102007.56
2023-04-15T17:28:38.071Z,102014.56
2023-04-15T17:31:05.307Z,102018.53
2023-04-15T17:33:58.807Z,102017.31
2023-04-15T17:36:18.632Z,102016.34
2023-04-15T17:38:45.815Z,102024.25
2023-04-15T17:41:12.675Z,102016.47
2023-04-15T17:43:39.222Z,102012.97
2023-04-15T17:46:07.272Z,102028.28
2023-04-15T17:48:34.246Z,102028.59
2023-04-15T17:51:13.328Z,102032.88
2023-04-15T17:53:39.989Z,102037.81
2023-04-15T17:56:06.661Z,102038.13
2023-04-15T17:58:33.304Z,102043.38
2023-04-15T18:01:00.052Z,102047.06
2023-04-15T18:03:26.679Z,102047.69
2023-04-15T18:05:53.333Z,102051.31
2023-04-15T18:08:20.094Z,102045.59
2023-04-15T18:10:46.519Z,102044.97
2023-04-15T18:13:16.010Z,102050.84
2023-04-15T18:15:42.683Z,102056.72
2023-04-15T18:18:09.281Z,102061.34
2023-04-15T18:20:44.979Z,102064.69
2023-04-15T18:23:24.006Z,102060.06
2023-04-15T18:25:50.413Z,102054.19
2023-04-15T18:28:19.343Z,102069.31
2023-04-15T18:30:57.947Z,102067.88
2023-04-15T18:33:24.790Z,102072.78
2023-04-15T18:35:51.285Z,102077.72
2023-04-15T18:38:18.403Z,102083.44
2023-04-15T18:40:44.852Z,102082.66
2023-04-15T18:43:11.329Z,102087.22
2023-04-15T18:45:40.682Z,102088.97
2023-04-15T18:48:07.403Z,102092.59
2023-04-15T18:50:34.033Z,102099.13
2023-04-15T18:53:10.034Z,102094.19
2023-04-15T18:55:36.639Z,102098.28
2023-04-15T18:58:07.563Z,102103.50
2023-04-15T19:00:39.059Z,102105.25
2023-04-15T19:03:06.356Z,102113.19
2023-04-15T19:05:33.333Z,102109.81
2023-04-15T19:08:00.019Z,102114.25
2023-04-15T19:10:28.124Z,102119.97
2023-04-15T19:12:55.432Z,102116.00
2023-04-15T19:15:22.098Z,102123.41
2023-04-15T19:17:48.680Z,102113.56
2023-04-15T19:20:15.465Z,102119.25
2023-04-15T19:22:43.173Z,102116.38
2023-04-15T19:25:18.624Z,102121.47
2023-04-15T19:27:45.452Z,102125.13
2023-04-15T19:30:12.196Z,102124.84
2023-04-15T19:32:38.754Z,102129.63
2023-04-15T19:35:06.603Z,102132.03
2023-04-15T19:37:33.136Z,102133.47
2023-04-15T19:39:59.610Z,102139.47
2023-04-15T19:42:26.008Z,102138.69
2023-04-15T19:44:52.393Z,102138.53
2023-04-15T19:47:18.893Z,102136.13
2023-04-15T19:49:45.496Z,102138.66
2023-04-15T19:52:12.166Z,102151.97
2023-04-15T19:54:38.745Z,102142.09
2023-04-15T19:57:05.578Z,102157.00
2023-04-15T19:59:32.308Z,102152.22
2023-04-15T20:01:58.978Z,102148.25
2023-04-15T20:04:25.969Z,102155.03
2023-04-15T20:06:52.686Z,102157.25
2023-04-15T20:09:19.233Z,102160.25
2023-04-15T20:12:46.670Z,102157.06
2023-04-15T20:14:32.404Z,102152.09
2023-04-15T20:16:59.093Z,102153.72
2023-04-15T20:19:25.898Z,102158.28
2023-04-15T20:21:54.304Z,102148.91
2023-04-15T20:24:21.570Z,102152.72
2023-04-15T20:26:49.072Z,102155.41
2023-04-15T20:29:15.992Z,102158.13
2023-04-15T20:31:42.491Z,102161.47
2023-04-15T20:34:11.787Z,102169.47
2023-04-15T20:36:38.707Z,102159.19
2023-04-15T20:39:05.673Z,102156.66
2023-04-15T20:41:32.211Z,102150.31
2023-04-15T20:43:58.936Z,102159.09
2023-04-15T20:46:27.370Z,102152.09
2023-04-15T20:48:54.296Z,102160.19
2023-04-15T20:51:20.881Z,102161.63
2023-04-15T20:53:49.797Z,102161.13
2023-04-15T20:56:16.249Z,102167.63
2023-04-15T20:58:42.746Z,102166.97
2023-04-15T21:01:09.400Z,102173.47
2023-04-15T21:03:36.019Z,102176.78
2023-04-15T21:06:02.456Z,102172.59
2023-04-15T21:08:31.930Z,102186.91
2023-04-15T21:10:58.714Z,102168.91
2023-04-15T21:13:25.333Z,102173.81
2023-04-15T21:15:54.368Z,102183.00
2023-04-15T21:18:22.273Z,102185.53
2023-04-15T21:20:59.338Z,102177.25
2023-04-15T21:23:26.788Z,102178.34
2023-04-15T21:25:53.488Z,102185.63
2023-04-15T21:28:20.110Z,102179.75
2023-04-15T21:30:47.064Z,102183.56
2023-04-15T21:33:13.592Z,102184.34
2023-04-15T21:35:40.155Z,102188.34
2023-04-15T21:38:06.757Z,102185.53
2023-04-15T21:40:33.644Z,102194.63
2023-04-15T21:43:00.239Z,102190.50
2023-04-15T21:45:27.060Z,102178.31
2023-04-15T21:47:57.150Z,102182.78
2023-04-15T21:50:34.017Z,102188.19
2023-04-15T21:53:00.575Z,102192.28
2023-04-15T21:55:29.418Z,102187.50
2023-04-15T21:57:56.191Z,102188.75
2023-04-15T22:00:23.284Z,102198.22
2023-04-15T22:02:50.378Z,102195.34
2023-04-15T22:05:16.962Z,102217.72
2023-04-15T22:07:47.014Z,102210.44
2023-04-15T22:10:13.575Z,102212.31
2023-04-15T22:12:41.893Z,102207.53
2023-04-15T22:15:08.681Z,102212.13
2023-04-15T22:17:35.101Z,102224.84
2023-04-15T22:20:01.866Z,102214.34
2023-04-15T22:22:43.310Z,102208.16
2023-04-15T22:25:11.247Z,102210.84
2023-04-15T22:27:37.882Z,102216.25
2023-04-15T22:30:05.151Z,102210.38
2023-04-15T22:32:31.682Z,102209.56
2023-04-15T22:34:58.132Z,102215.25
2023-04-15T22:37:24.643Z,102218.75
2023-04-15T22:39:52.010Z,102218.75
2023-04-15T22:42:18.514Z,102219.94
2023-04-15T22:44:45.145Z,102224.44
2023-04-15T22:47:11.516Z,102223.19
2023-04-15T22:49:37.925Z,102226.91
2023-04-15T22:52:04.530Z,102229.78
2023-04-15T22:54:31.368Z,102222.19
2023-04-15T22:56:58.125Z,102231.06
2023-04-15T22:59:25.287Z,102227.09
2023-04-15T23:01:51.840Z,102238.97
2023-04-15T23:04:27.559Z,102243.09
2023-04-15T23:06:54.932Z,102240.69
2023-04-15T23:09:21.797Z,102245.91
2023-04-15T23:11:48.246Z,102247.78
2023-04-15T23:14:14.656Z,102240.81
2023-04-15T23:16:41.400Z,102247.31
2023-04-15T23:19:08.315Z,102248.44
2023-04-15T23:21:35.113Z,102254.91
2023-04-15T23:24:01.654Z,102251.72
2023-04-15T23:26:37.164Z,102252.81
2023-04-15T23:29:03.790Z,102251.72
2023-04-15T23:31:30.441Z,102253.13
2023-04-15T23:33:57.003Z,102258.81
2023-04-15T23:36:23.486Z,102263.13
2023-04-15T23:38:49.954Z,102256.44
2023-04-15T23:41:16.478Z,102252.13
2023-04-15T23:43:43.103Z,102259.44
2023-04-15T23:46:09.567Z,102262.63
2023-04-15T23:48:36.029Z,102258.69
2023-04-15T23:51:09.997Z,102265.09
2023-04-15T23:53:36.474Z,102267.22
2023-04-15T23:56:02.874Z,102264.69
2023-04-15T23:58:29.386Z,102271.06
